createdAt,value
2019-05-07T00:01:08.486Z,97732.89
2019-05-07T00:03:36.562Z,97732.39
2019-05-07T00:06:04.864Z,97735.75
2019-05-07T00:08:33.026Z,97733.36
2019-05-07T00:11:02.320Z,97736.20
2019-05-07T00:13:30.620Z,97734.78
2019-05-07T00:15:58.502Z,97733.81
2019-05-07T00:18:26.080Z,97738.27
2019-05-07T00:20:54.351Z,97740.54
2019-05-07T00:23:23.196Z,97740.81
2019-05-07T00:25:52.958Z,97746.38
2019-05-07T00:28:23.042Z,97746.83
2019-05-07T00:30:52.124Z,97744.80
2019-05-07T00:33:22.707Z,97748.22
2019-05-07T00:36:02.976Z,97751.40
2019-05-07T00:38:33.486Z,97750.39
2019-05-07T00:41:14.109Z,97750.08
2019-05-07T00:43:43.380Z,97762.08
2019-05-07T00:46:17.421Z,97762.28
2019-05-07T00:48:45.476Z,97764.00
2019-05-07T00:51:42.634Z,97765.59
2019-05-07T00:54:12.280Z,97763.62
2019-05-07T00:56:42.715Z,97769.55
2019-05-07T00:59:12.910Z,97768.12
2019-05-07T01:01:43.205Z,97773.75
2019-05-07T01:04:11.996Z,97770.51
2019-05-07T01:06:42.303Z,97762.31
2019-05-07T01:09:12.315Z,97765.57
2019-05-07T01:11:42.733Z,97768.48
2019-05-07T01:14:12.389Z,97772.75
2019-05-07T01:16:42.099Z,97769.20
2019-05-07T01:19:12.579Z,97776.20
2019-05-07T01:21:43.070Z,97772.56
2019-05-07T01:24:12.406Z,97770.59
2019-05-07T01:26:42.516Z,97773.23
2019-05-07T01:29:10.151Z,97770.48
2019-05-07T01:31:43.947Z,97776.70
2019-05-07T01:34:27.417Z,97773.31
2019-05-07T01:36:55.439Z,97773.42
2019-05-07T01:39:23.454Z,97778.27
2019-05-07T01:41:52.456Z,97775.97
2019-05-07T01:44:22.150Z,97783.06
2019-05-07T01:46:52.761Z,97779.14
2019-05-07T01:49:20.588Z,97782.09
2019-05-07T01:51:48.569Z,97777.92
2019-05-07T01:54:16.749Z,97791.27
2019-05-07T01:56:44.536Z,97789.30
2019-05-07T01:59:12.434Z,97794.55
2019-05-07T02:01:42.938Z,97789.84
2019-05-07T02:04:32.777Z,97791.42
2019-05-07T02:07:23.100Z,97799.09
2019-05-07T02:09:58.668Z,97797.05
2019-05-07T02:12:31.920Z,97797.58
2019-05-07T02:14:59.911Z,97787.03
2019-05-07T02:17:27.868Z,97801.46
2019-05-07T02:19:55.968Z,97804.64
2019-05-07T02:22:23.810Z,97798.53
2019-05-07T02:24:52.480Z,97798.85
2019-05-07T02:27:22.126Z,97801.86
2019-05-07T02:29:52.401Z,97795.97
2019-05-07T02:32:20.333Z,97805.15
2019-05-07T02:34:48.271Z,97808.81
2019-05-07T02:37:23.220Z,97794.69
2019-05-07T02:39:58.292Z,97808.94
2019-05-07T02:42:26.370Z,97812.95
2019-05-07T02:45:13.318Z,97813.98
2019-05-07T02:47:43.707Z,97812.54
2019-05-07T02:50:19.151Z,97811.42
2019-05-07T02:52:56.513Z,97805.97
2019-05-07T02:55:35.104Z,97799.17
2019-05-07T02:58:03.714Z,97811.30
2019-05-07T03:00:33.383Z,97809.72
2019-05-07T03:03:04.209Z,97801.20
2019-05-07T03:05:34.578Z,97796.36
2019-05-07T03:08:03.372Z,97796.60
2019-05-07T03:10:33.972Z,97798.87
2019-05-07T03:13:03.082Z,97799.19
2019-05-07T03:15:33.170Z,97799.91
2019-05-07T03:18:03.344Z,97803.71
2019-05-07T03:20:38.096Z,97801.16
2019-05-07T03:23:07.747Z,97790.96
2019-05-07T03:26:13.651Z,97791.59
2019-05-07T03:29:13.009Z,97797.42
2019-05-07T03:31:56.414Z,97790.86
2019-05-07T03:34:47.151Z,97798.10
2019-05-07T03:37:17.630Z,97803.67
2019-05-07T03:39:45.698Z,97789.36
2019-05-07T03:42:13.844Z,97787.36
2019-05-07T03:44:53.594Z,97792.22
2019-05-07T03:47:27.360Z,97786.12
2019-05-07T03:49:55.590Z,97787.12
2019-05-07T03:52:24.522Z,97794.14
2019-05-07T03:54:54.023Z,97785.86
2019-05-07T03:57:23.776Z,97791.20
2019-05-07T03:59:53.274Z,97785.45
2019-05-07T04:02:24.023Z,97789.38
2019-05-07T04:04:52.932Z,97796.86
2019-05-07T04:07:23.299Z,97802.97
2019-05-07T04:09:53.453Z,97801.48
2019-05-07T04:12:23.480Z,97798.14
2019-05-07T04:14:53.332Z,97806.72
2019-05-07T04:17:25.734Z,97808.42
2019-05-07T04:19:53.213Z,97815.14
2019-05-07T04:22:26.388Z,97814.45
2019-05-07T04:25:08.846Z,97822.38
2019-05-07T04:27:47.088Z,97821.41
2019-05-07T04:30:14.796Z,97822.89
2019-05-07T04:32:47.765Z,97821.23
2019-05-07T04:35:24.354Z,97825.05
2019-05-07T04:37:53.311Z,97821.88
2019-05-07T04:40:24.026Z,97821.90
2019-05-07T04:42:53.851Z,97817.31
2019-05-07T04:45:23.134Z,97817.76
2019-05-07T04:47:53.832Z,97793.28
2019-05-07T04:50:42.025Z,97814.28
2019-05-07T04:52:56.089Z,97817.94
2019-05-07T04:55:24.432Z,97814.51
2019-05-07T04:57:53.379Z,97815.78
2019-05-07T05:00:22.977Z,97814.58
2019-05-07T05:03:13.564Z,97818.58
2019-05-07T05:05:43.550Z,97819.30
2019-05-07T05:08:13.390Z,97826.52
2019-05-07T05:10:43.350Z,97832.14
2019-05-07T05:13:12.972Z,97822.61
2019-05-07T05:15:43.135Z,97817.58
2019-05-07T05:18:12.752Z,97818.48
2019-05-07T05:21:02.641Z,97838.18
2019-05-07T05:23:42.448Z,97834.86
2019-05-07T05:26:12.484Z,97832.14
2019-05-07T05:28:41.902Z,97833.34
2019-05-07T05:31:09.921Z,97838.25
2019-05-07T05:33:37.825Z,97840.14
2019-05-07T05:36:05.811Z,97839.38
2019-05-07T05:38:33.853Z,97845.66
2019-05-07T05:41:02.763Z,97839.63
2019-05-07T05:43:39.069Z,97838.45
2019-05-07T05:46:07.208Z,97839.83
2019-05-07T05:48:35.182Z,97849.93
2019-05-07T05:51:25.529Z,97858.55
2019-05-07T05:53:57.836Z,97859.05
2019-05-07T05:56:32.460Z,97850.53
2019-05-07T05:59:37.051Z,97853.50
2019-05-07T06:02:27.145Z,97853.50
2019-05-07T06:05:05.374Z,97851.34
2019-05-07T06:07:42.761Z,97853.10
2019-05-07T06:10:42.512Z,97853.47
2019-05-07T06:13:35.840Z,97850.16
2019-05-07T06:16:13.403Z,97847.99
2019-05-07T06:19:04.168Z,97850.31
2019-05-07T06:21:52.678Z,97847.90
2019-05-07T06:24:32.194Z,97857.06
2019-05-07T06:27:00.235Z,97857.98
2019-05-07T06:29:28.411Z,97850.44
2019-05-07T06:32:02.833Z,97855.00
2019-05-07T06:34:31.049Z,97855.22
2019-05-07T06:36:59.330Z,97857.05
2019-05-07T06:39:32.753Z,97856.59
2019-05-07T06:42:18.818Z,97862.56
2019-05-07T06:45:02.940Z,97855.61
2019-05-07T06:47:32.428Z,97863.27
2019-05-07T06:50:00.334Z,97854.12
2019-05-07T06:52:28.459Z,97848.79
2019-05-07T06:54:56.655Z,97851.42
2019-05-07T06:57:26.468Z,97848.75
2019-05-07T06:59:59.992Z,97849.39
2019-05-07T07:02:35.303Z,97850.60
2019-05-07T07:05:42.562Z,97853.20
2019-05-07T07:08:32.407Z,97850.78
2019-05-07T07:11:19.751Z,97848.14
2019-05-07T07:13:47.767Z,97850.11
2019-05-07T07:16:16.221Z,97851.62
2019-05-07T07:18:51.906Z,97848.84
2019-05-07T07:21:14.105Z,97844.84
2019-05-07T07:23:42.995Z,97837.18
2019-05-07T07:26:12.633Z,97845.32
2019-05-07T07:28:42.796Z,97837.67
2019-05-07T07:31:31.852Z,97837.63
2019-05-07T07:34:02.343Z,97838.20
2019-05-07T07:36:34.195Z,97831.52
2019-05-07T07:39:03.535Z,97831.50
2019-05-07T07:41:45.187Z,97825.66
2019-05-07T07:44:13.475Z,97819.41
2019-05-07T07:46:42.522Z,97823.41
2019-05-07T07:49:14.550Z,97832.03
2019-05-07T07:51:44.686Z,97832.22
2019-05-07T07:54:10.313Z,97832.66
2019-05-07T07:56:57.191Z,97831.23
2019-05-07T07:59:44.770Z,97834.27
2019-05-07T08:02:23.664Z,97830.28
2019-05-07T08:04:52.752Z,97833.03
2019-05-07T08:07:22.670Z,97822.20
2019-05-07T08:09:52.044Z,97827.23
2019-05-07T08:12:22.150Z,97825.42
2019-05-07T08:14:51.890Z,97825.23
2019-05-07T08:17:22.169Z,97824.92
2019-05-07T08:19:51.980Z,97825.28
2019-05-07T08:22:22.347Z,97820.11
2019-05-07T08:24:51.894Z,97832.73
2019-05-07T08:27:22.174Z,97831.94
2019-05-07T08:29:52.293Z,97828.97
2019-05-07T08:32:37.962Z,97828.66
2019-05-07T08:35:28.591Z,97828.50
2019-05-07T08:37:56.801Z,97836.97
2019-05-07T08:40:24.804Z,97845.02
2019-05-07T08:42:53.727Z,97835.70
2019-05-07T08:45:39.742Z,97836.08
2019-05-07T08:48:12.666Z,97836.93
2019-05-07T08:50:41.920Z,97837.88
2019-05-07T08:53:10.114Z,97835.55
2019-05-07T08:55:38.017Z,97835.12
2019-05-07T08:58:06.200Z,97806.58
2019-05-07T09:00:34.190Z,97831.20
2019-05-07T09:03:02.181Z,97819.75
2019-05-07T09:05:32.197Z,97809.02
2019-05-07T09:08:02.099Z,97810.81
2019-05-07T09:10:32.309Z,97807.91
2019-05-07T09:13:00.166Z,97800.41
2019-05-07T09:15:28.271Z,97810.52
2019-05-07T09:17:56.572Z,97803.81
2019-05-07T09:20:24.540Z,97797.17
2019-05-07T09:22:52.407Z,97812.63
2019-05-07T09:25:22.142Z,97808.42
2019-05-07T09:27:52.397Z,97802.09
2019-05-07T09:30:29.969Z,97799.07
2019-05-07T09:33:09.344Z,97796.23
2019-05-07T09:35:42.371Z,97799.37
2019-05-07T09:38:12.181Z,97801.17
2019-05-07T09:40:42.133Z,97799.35
2019-05-07T09:43:11.723Z,97795.98
2019-05-07T09:45:42.027Z,97790.27
2019-05-07T09:48:12.010Z,97789.59
2019-05-07T09:50:42.716Z,97783.98
2019-05-07T09:53:12.541Z,97777.80
2019-05-07T09:55:42.368Z,97767.98
2019-05-07T09:58:12.555Z,97767.00
2019-05-07T10:00:42.453Z,97758.42
2019-05-07T10:03:12.602Z,97761.09
2019-05-07T10:05:42.794Z,97762.47
2019-05-07T10:08:12.785Z,97765.27
2019-05-07T10:10:41.692Z,97762.98
2019-05-07T10:13:25.797Z,97762.80
2019-05-07T10:15:53.908Z,97766.70
2019-05-07T10:18:22.860Z,97752.87
2019-05-07T10:20:52.167Z,97737.17
2019-05-07T10:23:22.402Z,97749.73
2019-05-07T10:25:52.018Z,97740.23
2019-05-07T10:28:22.579Z,97742.41
2019-05-07T10:30:52.127Z,97741.73
2019-05-07T10:33:20.254Z,97736.00
2019-05-07T10:35:48.555Z,97735.13
2019-05-07T10:38:16.447Z,97736.71
2019-05-07T10:40:44.687Z,97732.64
2019-05-07T10:43:12.955Z,97711.45
2019-05-07T10:46:07.213Z,97719.42
2019-05-07T10:48:45.930Z,97712.86
2019-05-07T10:51:14.255Z,97714.37
2019-05-07T10:53:42.547Z,97709.52
2019-05-07T10:56:11.827Z,97709.13
2019-05-07T10:58:41.755Z,97714.71
2019-05-07T11:01:12.025Z,97714.38
2019-05-07T11:03:41.941Z,97704.70
2019-05-07T11:06:11.877Z,97699.78
2019-05-07T11:08:39.945Z,97689.80
2019-05-07T11:11:07.851Z,97700.38
2019-05-07T11:13:36.817Z,97690.25
2019-05-07T11:16:08.521Z,97689.56
2019-05-07T11:18:45.323Z,97689.45
2019-05-07T11:21:13.595Z,97684.97
2019-05-07T11:23:42.015Z,97681.28
2019-05-07T11:26:11.774Z,97679.80
2019-05-07T11:28:40.150Z,97687.61
2019-05-07T11:31:08.028Z,97679.33
2019-05-07T11:33:36.108Z,97676.79
2019-05-07T11:36:04.565Z,97673.66
2019-05-07T11:38:33.570Z,97664.34
2019-05-07T11:41:02.289Z,97669.13
2019-05-07T11:43:55.980Z,97662.20
2019-05-07T11:46:44.404Z,97659.20
2019-05-07T11:49:35.479Z,97659.54
2019-05-07T11:52:08.001Z,97656.33
2019-05-07T11:54:36.045Z,97653.86
2019-05-07T11:57:04.096Z,97657.59
2019-05-07T11:59:32.688Z,97652.52
2019-05-07T12:02:02.609Z,97648.22
2019-05-07T12:04:31.987Z,97648.56
2019-05-07T12:07:02.432Z,97648.52
2019-05-07T12:09:30.668Z,97647.13
2019-05-07T12:11:58.690Z,97653.79
2019-05-07T12:14:31.517Z,97645.75
2019-05-07T12:16:56.716Z,97632.17
2019-05-07T12:19:24.741Z,97637.55
2019-05-07T12:21:52.852Z,97629.00
2019-05-07T12:24:22.334Z,97627.88
2019-05-07T12:26:52.285Z,97629.30
2019-05-07T12:29:22.067Z,97641.51
2019-05-07T12:31:58.800Z,97623.28
2019-05-07T12:34:47.873Z,97637.17
2019-05-07T12:37:16.106Z,97626.23
2019-05-07T12:39:44.335Z,97634.53
2019-05-07T12:42:12.416Z,97632.77
2019-05-07T12:44:42.607Z,97636.34
2019-05-07T12:47:12.079Z,97629.28
2019-05-07T12:49:40.397Z,97616.57
2019-05-07T12:52:22.771Z,97619.34
2019-05-07T12:55:13.134Z,97615.23
2019-05-07T12:57:42.077Z,97609.84
2019-05-07T13:00:29.508Z,97717.80
2019-05-07T13:03:26.119Z,97602.01
2019-05-07T13:05:53.801Z,97606.39
2019-05-07T13:08:23.061Z,97607.16
2019-05-07T13:10:52.460Z,97597.20
2019-05-07T13:13:20.638Z,97602.42
2019-05-07T13:15:48.893Z,97602.77
2019-05-07T13:18:16.585Z,97597.34
2019-05-07T13:20:44.543Z,97597.08
2019-05-07T13:23:12.829Z,97594.80
2019-05-07T13:25:42.784Z,97593.73
2019-05-07T13:28:11.880Z,97587.61
2019-05-07T13:30:43.603Z,97593.52
2019-05-07T13:33:12.182Z,97576.20
2019-05-07T13:35:42.050Z,97591.64
2019-05-07T13:38:48.443Z,97586.63
2019-05-07T13:41:38.654Z,97585.82
2019-05-07T13:44:13.760Z,97579.96
2019-05-07T13:46:44.786Z,97574.70
2019-05-07T13:49:12.506Z,97589.85
2019-05-07T13:51:41.812Z,97585.91
2019-05-07T13:54:12.696Z,97576.11
2019-05-07T13:56:41.959Z,97572.09
2019-05-07T13:59:13.146Z,97569.91
2019-05-07T14:02:00.216Z,97569.17
2019-05-07T14:04:28.289Z,97564.39
2019-05-07T14:06:58.343Z,97564.13
2019-05-07T14:09:26.476Z,97567.66
2019-05-07T14:11:54.400Z,97560.97
2019-05-07T14:14:22.860Z,97565.92
2019-05-07T14:16:53.099Z,97558.23
2019-05-07T14:19:22.466Z,97559.16
2019-05-07T14:21:52.550Z,97552.16
2019-05-07T14:24:22.339Z,97554.37
2019-05-07T14:26:52.536Z,97560.16
2019-05-07T14:29:24.466Z,97555.50
2019-05-07T14:32:02.162Z,97554.94
2019-05-07T14:34:35.251Z,97552.52
2019-05-07T14:37:12.918Z,97558.58
2019-05-07T14:39:42.535Z,97567.59
2019-05-07T14:42:14.363Z,97559.98
2019-05-07T14:44:49.037Z,97555.92
2019-05-07T14:47:18.055Z,97555.07
2019-05-07T14:49:47.633Z,97551.05
2019-05-07T14:52:22.646Z,97557.69
2019-05-07T14:54:45.426Z,97546.97
2019-05-07T14:57:13.286Z,97547.52
2019-05-07T14:59:42.755Z,97533.42
2019-05-07T15:02:12.059Z,97558.95
2019-05-07T15:04:41.935Z,97553.58
2019-05-07T15:07:12.046Z,97554.92
2019-05-07T15:09:41.950Z,97551.75
2019-05-07T15:12:12.467Z,97564.84
2019-05-07T15:14:42.028Z,97565.44
2019-05-07T15:17:18.976Z,97554.62
2019-05-07T15:19:47.039Z,97559.18
2019-05-07T15:22:46.289Z,97555.23
2019-05-07T15:25:03.056Z,97553.19
2019-05-07T15:27:32.285Z,97558.23
2019-05-07T15:30:02.283Z,97555.20
2019-05-07T15:32:32.290Z,97558.64
2019-05-07T15:35:02.165Z,97558.72
2019-05-07T15:37:32.023Z,97561.55
2019-05-07T15:40:02.237Z,97557.59
2019-05-07T15:42:29.601Z,97551.22
2019-05-07T15:44:57.563Z,97551.05
2019-05-07T15:47:31.857Z,97555.79
2019-05-07T15:49:59.961Z,97550.98
2019-05-07T15:53:02.556Z,97554.89
2019-05-07T15:55:30.491Z,97546.95
2019-05-07T15:57:58.872Z,97542.28
2019-05-07T16:00:27.963Z,97548.52
2019-05-07T16:03:02.658Z,97555.70
2019-05-07T16:05:31.870Z,97548.73
2019-05-07T16:08:01.772Z,97556.22
2019-05-07T16:10:32.187Z,97549.77
2019-05-07T16:13:00.033Z,97551.05
2019-05-07T16:15:28.063Z,97551.05
2019-05-07T16:18:00.006Z,97539.67
2019-05-07T16:20:28.088Z,97550.52
2019-05-07T16:23:12.092Z,97536.53
2019-05-07T16:25:29.714Z,97546.31
2019-05-07T16:27:57.723Z,97544.55
2019-05-07T16:30:25.962Z,97545.20
2019-05-07T16:32:55.399Z,97536.98
2019-05-07T16:35:23.390Z,97545.81
2019-05-07T16:37:52.236Z,97539.75
2019-05-07T16:40:22.800Z,97529.42
2019-05-07T16:42:52.410Z,97546.94
2019-05-07T16:45:20.703Z,97547.43
2019-05-07T16:47:48.590Z,97545.38
2019-05-07T16:50:16.912Z,97535.59
2019-05-07T16:52:45.011Z,97551.87
2019-05-07T16:55:13.294Z,97551.63
2019-05-07T16:58:03.728Z,97555.64
2019-05-07T17:00:53.051Z,97547.52
2019-05-07T17:03:25.031Z,97547.28
2019-05-07T17:05:52.978Z,97554.05
2019-05-07T17:08:32.003Z,97546.66
2019-05-07T17:11:00.071Z,97548.19
2019-05-07T17:13:28.148Z,97554.25
2019-05-07T17:15:57.196Z,97554.84
2019-05-07T17:18:26.164Z,97563.43
2019-05-07T17:20:54.203Z,97565.12
2019-05-07T17:23:22.667Z,97561.95
2019-05-07T17:25:52.573Z,97563.63
2019-05-07T17:28:22.716Z,97561.09
2019-05-07T17:30:52.472Z,97570.14
2019-05-07T17:33:22.984Z,97574.42
2019-05-07T17:35:52.238Z,97578.73
2019-05-07T17:38:20.271Z,97592.78
2019-05-07T17:40:48.361Z,97601.23
2019-05-07T17:43:16.553Z,97602.28
2019-05-07T17:45:44.516Z,97601.23
2019-05-07T17:48:12.660Z,97608.63
2019-05-07T17:50:58.746Z,97615.23
2019-05-07T17:53:28.420Z,97612.55
2019-05-07T17:55:56.463Z,97619.44
2019-05-07T17:58:24.603Z,97626.34
2019-05-07T18:00:56.283Z,97627.06
2019-05-07T18:03:32.334Z,97628.38
2019-05-07T18:06:02.404Z,97632.08
2019-05-07T18:08:32.478Z,97630.67
2019-05-07T18:11:02.261Z,97633.16
2019-05-07T18:13:32.529Z,97629.66
2019-05-07T18:16:07.701Z,97635.31
2019-05-07T18:18:35.848Z,97610.01
2019-05-07T18:21:05.199Z,97635.45
2019-05-07T18:23:34.824Z,97638.83
2019-05-07T18:26:03.487Z,97643.09
2019-05-07T18:28:32.574Z,97644.05
2019-05-07T18:31:02.011Z,97648.14
2019-05-07T18:33:44.994Z,97654.76
2019-05-07T18:36:13.186Z,97656.56
2019-05-07T18:38:42.425Z,97659.97
2019-05-07T18:41:12.213Z,97661.92
2019-05-07T18:43:42.202Z,97655.37
2019-05-07T18:46:12.631Z,97659.86
2019-05-07T18:48:42.441Z,97661.05
2019-05-07T18:51:12.195Z,97658.97
2019-05-07T18:53:42.577Z,97667.89
2019-05-07T18:56:12.617Z,97663.33
2019-05-07T18:58:42.584Z,97670.94
2019-05-07T19:01:11.903Z,97647.11
2019-05-07T19:03:41.821Z,97658.38
2019-05-07T19:06:10.725Z,97661.69
2019-05-07T19:08:38.813Z,97680.15
2019-05-07T19:11:06.906Z,97686.89
2019-05-07T19:13:34.856Z,97685.28
2019-05-07T19:16:03.032Z,97688.80
2019-05-07T19:18:32.213Z,97693.12
2019-05-07T19:21:00.627Z,97706.08
2019-05-07T19:23:29.816Z,97703.09
2019-05-07T19:25:57.877Z,97711.25
2019-05-07T19:28:25.550Z,97711.63
2019-05-07T19:30:53.611Z,97712.02
2019-05-07T19:33:26.510Z,97712.96
2019-05-07T19:35:52.807Z,97710.72
2019-05-07T19:38:20.985Z,97711.63
2019-05-07T19:40:48.977Z,97710.68
2019-05-07T19:43:16.906Z,97708.54
2019-05-07T19:45:45.152Z,97683.60
2019-05-07T19:48:13.193Z,97703.44
2019-05-07T19:50:42.059Z,97705.55
2019-05-07T19:53:12.366Z,97718.04
2019-05-07T19:55:57.472Z,97711.80
2019-05-07T19:58:25.341Z,97712.82
2019-05-07T20:00:56.988Z,97717.81
2019-05-07T20:03:23.825Z,97717.38
2019-05-07T20:05:52.496Z,97717.96
2019-05-07T20:08:22.311Z,97716.88
2019-05-07T20:10:56.518Z,97714.81
2019-05-07T20:13:27.215Z,97713.59
2019-05-07T20:16:05.349Z,97719.22
2019-05-07T20:18:33.612Z,97723.37
2019-05-07T20:21:02.694Z,97720.11
2019-05-07T20:23:32.821Z,97723.44
2019-05-07T20:26:02.986Z,97722.39
2019-05-07T20:28:32.706Z,97688.32
2019-05-07T20:31:00.848Z,97716.45
2019-05-07T20:33:28.917Z,97728.52
2019-05-07T20:35:56.828Z,97733.25
2019-05-07T20:38:24.867Z,97735.26
2019-05-07T20:40:52.891Z,97740.14
2019-05-07T20:43:22.990Z,97737.45
2019-05-07T20:45:51.865Z,97734.94
2019-05-07T20:48:22.691Z,97737.16
2019-05-07T20:50:52.083Z,97728.09
2019-05-07T20:53:39.387Z,97733.30
2019-05-07T20:56:07.271Z,97736.61
2019-05-07T20:58:35.296Z,97739.75
2019-05-07T21:01:03.174Z,97739.55
2019-05-07T21:03:32.465Z,97744.09
2019-05-07T21:06:02.274Z,97741.78
2019-05-07T21:08:32.090Z,97731.41
2019-05-07T21:11:02.509Z,97731.36
2019-05-07T21:13:34.142Z,97734.86
2019-05-07T21:16:00.418Z,97729.79
2019-05-07T21:18:28.661Z,97739.45
2019-05-07T21:20:56.839Z,97740.70
2019-05-07T21:23:24.741Z,97740.64
2019-05-07T21:25:53.215Z,97719.38
2019-05-07T21:28:21.409Z,97744.08
2019-05-07T21:30:51.947Z,97744.32
2019-05-07T21:33:19.339Z,97745.03
2019-05-07T21:35:47.426Z,97748.75
2019-05-07T21:38:15.375Z,97754.09
2019-05-07T21:40:43.373Z,97755.52
2019-05-07T21:43:12.297Z,97755.80
2019-05-07T21:45:42.303Z,97755.98
2019-05-07T21:48:10.212Z,97759.30
2019-05-07T21:50:38.323Z,97760.87
2019-05-07T21:53:12.228Z,97752.22
2019-05-07T21:56:02.192Z,97758.41
2019-05-07T21:58:42.962Z,97758.25
2019-05-07T22:01:24.575Z,97755.73
2019-05-07T22:03:53.374Z,97755.97
2019-05-07T22:06:22.770Z,97742.97
2019-05-07T22:08:52.527Z,97752.53
2019-05-07T22:11:23.065Z,97756.23
2019-05-07T22:13:52.772Z,97753.05
2019-05-07T22:16:22.172Z,97753.70
2019-05-07T22:18:52.201Z,97753.70
2019-05-07T22:21:20.256Z,97749.55
2019-05-07T22:23:48.123Z,97746.15
2019-05-07T22:26:22.235Z,97741.99
2019-05-07T22:28:46.343Z,97744.06
2019-05-07T22:31:23.326Z,97742.70
2019-05-07T22:34:29.004Z,97744.58
2019-05-07T22:36:56.989Z,97734.67
2019-05-07T22:39:35.944Z,97735.67
2019-05-07T22:42:05.626Z,97730.51
2019-05-07T22:44:33.720Z,97728.73
2019-05-07T22:47:18.137Z,97726.74
2019-05-07T22:49:47.150Z,97720.09
2019-05-07T22:52:15.011Z,97724.67
2019-05-07T22:54:43.126Z,97718.42
2019-05-07T22:57:33.374Z,97729.23
2019-05-07T23:00:04.504Z,97722.03
2019-05-07T23:02:33.302Z,97728.61
2019-05-07T23:05:02.901Z,97720.53
2019-05-07T23:07:32.886Z,97731.27
2019-05-07T23:10:02.834Z,97711.86
2019-05-07T23:12:32.642Z,97735.94
2019-05-07T23:15:02.754Z,97731.12
2019-05-07T23:17:32.546Z,97726.34
2019-05-07T23:20:00.153Z,97726.58
2019-05-07T23:22:28.107Z,97725.01
2019-05-07T23:24:56.093Z,97720.47
2019-05-07T23:27:24.268Z,97725.78
2019-05-07T23:29:52.931Z,97731.70
2019-05-07T23:32:22.217Z,97725.13
2019-05-07T23:34:52.574Z,97725.75
2019-05-07T23:37:19.781Z,97714.06
2019-05-07T23:39:51.848Z,97719.86
2019-05-07T23:42:23.333Z,97714.92
2019-05-07T23:44:52.398Z,97709.40
2019-05-07T23:47:20.229Z,97714.00
2019-05-07T23:49:48.255Z,97711.77
2019-05-07T23:52:16.141Z,97710.11
2019-05-07T23:54:44.665Z,97713.69
2019-05-07T23:57:15.342Z,97710.72
2019-05-07T23:59:42.694Z,97711.12
